Time;durP1;ratioP1;P1;durP2;ratioP2;P2;SDS_P1;SDS_P2;PMS_P1;PMS_P2;Temp;Humidity;BMP_temperature;BMP_pressure;BME280_temperature;BME280_humidity;BME280_pressure;Samples;Min_cycle;Max_cycle;Signal;HPM_P1;HPM_P2
2023/06/20 00:00:50;;;;;;;10.13;7.07;;;22.40;99.90;;;;;;5028302;28;20182;-70
2023/06/20 00:03:16;;;;;;;6.60;6.00;;;22.40;99.90;;;;;;5027422;28;20182;-70
2023/06/20 00:05:43;;;;;;;8.40;7.60;;;22.40;99.90;;;;;;5028373;28;20448;-70
2023/06/20 00:08:09;;;;;;;7.20;6.50;;;22.40;99.90;;;;;;5028315;28;20457;-70
2023/06/20 00:10:34;;;;;;;9.73;6.40;;;22.40;99.90;;;;;;5028323;28;20508;-69
2023/06/20 00:13:00;;;;;;;8.00;7.20;;;22.40;99.90;;;;;;5027767;28;20179;-69
2023/06/20 00:15:27;;;;;;;7.30;6.60;;;22.40;99.90;;;;;;5027255;28;20179;-70
2023/06/20 00:17:53;;;;;;;7.97;6.30;;;22.40;99.90;;;;;;5028312;28;20175;-70
2023/06/20 00:20:19;;;;;;;7.23;6.53;;;22.40;99.90;;;;;;5028377;28;20520;-70
2023/06/20 00:22:45;;;;;;;8.13;7.30;;;22.40;99.90;;;;;;5027575;28;21016;-70
2023/06/20 00:25:11;;;;;;;6.57;6.00;;;22.40;99.90;;;;;;5028125;28;20181;-70
2023/06/20 00:27:37;;;;;;;6.00;5.60;;;22.40;99.90;;;;;;5035492;28;20180;-70
2023/06/20 00:30:03;;;;;;;7.30;6.70;;;22.40;99.90;;;;;;5048149;28;21106;-70
2023/06/20 00:32:28;;;;;;;6.87;6.27;;;22.40;99.90;;;;;;5042124;28;20182;-70
2023/06/20 00:34:58;;;;;;;7.60;6.90;;;22.40;99.90;;;;;;5027886;28;20913;-70
2023/06/20 00:37:27;;;;;;;7.60;6.83;;;22.40;99.90;;;;;;5028284;28;20689;-70
2023/06/20 00:39:53;;;;;;;8.63;6.70;;;22.40;99.90;;;;;;5028130;28;20624;-69
2023/06/20 00:42:20;;;;;;;9.73;7.87;;;22.30;99.90;;;;;;5028289;28;20417;-70
2023/06/20 00:44:49;;;;;;;7.53;6.87;;;22.40;99.90;;;;;;5031503;28;20511;-70
2023/06/20 00:47:16;;;;;;;8.27;6.67;;;22.40;99.90;;;;;;5031629;28;20463;-70
2023/06/20 00:49:46;;;;;;;7.93;7.23;;;22.40;99.90;;;;;;5030419;28;20850;-70
2023/06/20 00:52:18;;;;;;;8.93;7.27;;;22.30;99.90;;;;;;5030974;28;20426;-70
2023/06/20 00:54:44;;;;;;;7.87;7.17;;;22.30;99.90;;;;;;5031440;28;20467;-70
2023/06/20 00:57:15;;;;;;;7.77;7.07;;;22.30;99.90;;;;;;5031317;28;20744;-70
2023/06/20 00:59:44;;;;;;;8.00;7.30;;;22.30;99.90;;;;;;5031510;28;20813;-69
2023/06/20 01:02:11;;;;;;;8.13;7.03;;;22.30;99.90;;;;;;5030606;28;20467;-69
2023/06/20 01:04:45;;;;;;;7.93;7.23;;;22.20;99.90;;;;;;5031152;28;20494;-69
2023/06/20 01:07:17;;;;;;;6.80;6.30;;;22.20;99.90;;;;;;5030101;28;20752;-70
2023/06/20 01:10:02;;;;;;;7.90;7.10;;;22.20;99.90;;;;;;5031417;28;20452;-70
2023/06/20 01:12:35;;;;;;;9.63;7.37;;;22.20;99.90;;;;;;5029613;28;20424;-70
2023/06/20 01:15:11;;;;;;;8.20;7.43;;;22.20;99.90;;;;;;5031104;28;20488;-69
2023/06/20 01:17:48;;;;;;;8.33;7.63;;;22.20;99.90;;;;;;5031064;28;20412;-70
2023/06/20 01:20:44;;;;;;;8.60;7.90;;;22.20;99.90;;;;;;5031160;28;20429;-69
2023/06/20 01:23:15;;;;;;;8.40;7.60;;;22.20;99.90;;;;;;5030143;28;20933;-70
2023/06/20 01:25:59;;;;;;;8.50;7.70;;;22.20;99.90;;;;;;5030936;28;20405;-70
2023/06/20 01:28:32;;;;;;;8.60;7.80;;;22.10;99.90;;;;;;5030812;28;20479;-70
2023/06/20 01:31:10;;;;;;;8.20;7.40;;;22.10;99.90;;;;;;5030846;28;20420;-70
2023/06/20 01:33:58;;;;;;;8.07;7.40;;;22.10;99.90;;;;;;5030247;28;20406;-70
2023/06/20 01:36:46;;;;;;;8.90;8.00;;;22.10;99.90;;;;;;5030687;28;20474;-70
2023/06/20 01:39:17;;;;;;;8.70;8.00;;;22.00;99.90;;;;;;5030856;28;20857;-70
2023/06/20 01:41:45;;;;;;;9.53;7.20;;;22.00;99.90;;;;;;5030058;28;20421;-70
2023/06/20 01:44:14;;;;;;;7.97;7.27;;;22.00;99.90;;;;;;5030512;28;20413;-70
2023/06/20 01:46:40;;;;;;;7.80;7.00;;;22.00;99.90;;;;;;5030487;28;20445;-70
2023/06/20 01:49:09;;;;;;;8.80;7.90;;;22.00;99.90;;;;;;5030691;28;20504;-70
2023/06/20 01:51:34;;;;;;;8.30;7.50;;;22.00;99.90;;;;;;5029777;28;20406;-70
2023/06/20 01:54:03;;;;;;;9.00;7.40;;;22.00;99.90;;;;;;5029489;28;20882;-70
2023/06/20 01:56:30;;;;;;;7.87;7.20;;;22.00;99.90;;;;;;5030324;28;20198;-70
2023/06/20 01:58:59;;;;;;;7.67;6.97;;;22.00;99.90;;;;;;5030383;28;20425;-70
2023/06/20 02:01:26;;;;;;;7.80;7.20;;;22.00;99.90;;;;;;5029798;28;20478;-70
2023/06/20 02:03:56;;;;;;;7.50;6.80;;;22.10;99.90;;;;;;5030029;28;20420;-70
2023/06/20 02:06:23;;;;;;;8.03;7.33;;;22.00;99.90;;;;;;5030148;28;20877;-70
2023/06/20 02:08:51;;;;;;;7.80;7.00;;;22.00;99.90;;;;;;5030115;28;20465;-70
2023/06/20 02:11:18;;;;;;;7.93;6.97;;;22.00;99.90;;;;;;5029706;28;20440;-70
2023/06/20 02:13:47;;;;;;;7.70;7.00;;;22.00;99.90;;;;;;5028847;28;21107;-70
2023/06/20 02:16:13;;;;;;;8.47;7.67;;;22.00;99.90;;;;;;5030066;28;20421;-70
2023/06/20 02:18:39;;;;;;;7.50;6.90;;;21.90;99.90;;;;;;5030029;28;21038;-69
2023/06/20 02:21:07;;;;;;;8.10;7.30;;;21.90;99.90;;;;;;5030106;28;20453;-70
2023/06/20 02:23:34;;;;;;;7.17;6.47;;;21.80;99.90;;;;;;5029167;28;20174;-70
2023/06/20 02:26:08;;;;;;;8.30;7.60;;;21.80;99.90;;;;;;5030169;28;20508;-70
2023/06/20 02:28:40;;;;;;;7.63;6.90;;;21.70;99.90;;;;;;5029649;28;20515;-70
2023/06/20 02:31:09;;;;;;;7.00;6.40;;;21.60;99.90;;;;;;5029756;28;20926;-69
2023/06/20 02:33:37;;;;;;;7.07;6.47;;;21.60;99.90;;;;;;5028904;28;21020;-70
2023/06/20 02:36:04;;;;;;;7.07;6.47;;;21.50;99.90;;;;;;5029898;28;20409;-70
2023/06/20 02:38:31;;;;;;;7.47;6.87;;;21.50;99.90;;;;;;5029498;28;20860;-70
2023/06/20 02:40:57;;;;;;;8.13;6.77;;;21.50;99.90;;;;;;5029651;28;20449;-69
2023/06/20 02:43:23;;;;;;;8.27;7.57;;;21.60;99.90;;;;;;5028769;28;20973;-70
2023/06/20 02:45:59;;;;;;;7.43;6.20;;;21.60;99.90;;;;;;5028485;28;20182;-70
2023/06/20 02:48:51;;;;;;;7.17;6.47;;;21.50;99.90;;;;;;5028170;28;20201;-70
2023/06/20 02:51:28;;;;;;;8.20;7.00;;;21.50;99.90;;;;;;5028969;28;20405;-70
2023/06/20 02:54:20;;;;;;;6.50;5.80;;;21.50;99.90;;;;;;5029073;28;20735;-69
2023/06/20 02:56:53;;;;;;;9.27;6.10;;;21.50;99.90;;;;;;5029286;28;20513;-70
2023/06/20 02:59:21;;;;;;;6.97;6.40;;;21.60;99.90;;;;;;5029219;28;20502;-70
2023/06/20 03:01:47;;;;;;;7.13;6.53;;;21.50;99.90;;;;;;5028662;28;20413;-71
2023/06/20 03:04:15;;;;;;;6.87;6.17;;;21.50;99.90;;;;;;5028818;28;20443;-70
2023/06/20 03:06:43;;;;;;;7.23;6.50;;;21.50;99.90;;;;;;5029168;28;20417;-70
2023/06/20 03:09:11;;;;;;;8.87;7.00;;;21.50;99.90;;;;;;5028949;28;20539;-70
2023/06/20 03:11:37;;;;;;;8.00;6.70;;;21.40;99.90;;;;;;5028605;28;20435;-70
2023/06/20 03:14:03;;;;;;;7.40;6.70;;;21.50;99.90;;;;;;5026930;28;20417;-70
2023/06/20 03:16:30;;;;;;;7.10;6.50;;;21.40;99.90;;;;;;5029276;28;20201;-70
2023/06/20 03:18:56;;;;;;;7.30;6.70;;;21.30;99.90;;;;;;5027660;28;20528;-70
2023/06/20 03:21:22;;;;;;;7.97;6.77;;;21.30;99.90;;;;;;5028381;28;20993;-70
2023/06/20 03:23:48;;;;;;;7.40;6.70;;;21.20;99.90;;;;;;5028596;28;20185;-69
2023/06/20 03:26:13;;;;;;;6.27;5.73;;;21.20;99.90;;;;;;5029226;28;20186;-69
2023/06/20 03:28:39;;;;;;;7.43;6.73;;;21.20;99.90;;;;;;5028604;28;20214;-69
2023/06/20 03:31:05;;;;;;;6.97;6.00;;;21.20;99.90;;;;;;5028877;28;20560;-70
2023/06/20 03:33:30;;;;;;;6.17;5.57;;;21.30;99.90;;;;;;5027645;28;20187;-69
2023/06/20 03:35:56;;;;;;;5.80;5.30;;;21.30;99.90;;;;;;5029065;28;20186;-71
2023/06/20 03:38:21;;;;;;;6.30;5.70;;;21.30;99.90;;;;;;5028705;28;20535;-70
2023/06/20 03:40:49;;;;;;;6.30;5.70;;;21.40;99.90;;;;;;5028856;28;20178;-70
2023/06/20 03:43:15;;;;;;;6.10;5.13;;;21.40;99.90;;;;;;5027626;28;20170;-69
2023/06/20 03:45:41;;;;;;;5.30;4.80;;;21.40;99.90;;;;;;5028853;28;20413;-70
2023/06/20 03:48:06;;;;;;;5.27;4.87;;;21.40;99.90;;;;;;5028440;28;20264;-70
2023/06/20 03:50:32;;;;;;;5.23;4.80;;;21.40;99.90;;;;;;5028830;28;20229;-70
2023/06/20 03:52:58;;;;;;;5.23;4.73;;;21.50;99.90;;;;;;5026421;28;20181;-69
2023/06/20 03:55:24;;;;;;;5.87;5.37;;;21.40;99.90;;;;;;5028928;28;20663;-70
2023/06/20 03:57:49;;;;;;;5.57;5.07;;;21.40;99.90;;;;;;5028455;28;20259;-70
2023/06/20 04:00:15;;;;;;;8.17;5.83;;;21.40;99.90;;;;;;5028728;28;20191;-70
2023/06/20 04:02:41;;;;;;;5.37;4.97;;;21.40;99.90;;;;;;5027704;28;20182;-70
2023/06/20 04:05:11;;;;;;;5.50;5.00;;;21.40;99.90;;;;;;5028400;28;20251;-69
2023/06/20 04:07:36;;;;;;;5.70;5.10;;;21.30;99.90;;;;;;5028462;28;20405;-70
2023/06/20 04:10:02;;;;;;;5.17;4.77;;;21.30;99.90;;;;;;5028716;28;20510;-70
2023/06/20 04:12:28;;;;;;;5.50;5.00;;;21.20;99.90;;;;;;5028050;28;21023;-70
2023/06/20 04:14:54;;;;;;;6.20;5.70;;;21.20;99.90;;;;;;5028362;28;20466;-70
2023/06/20 04:17:19;;;;;;;5.67;5.17;;;21.10;99.90;;;;;;5029329;28;20175;-70
2023/06/20 04:19:45;;;;;;;5.47;4.97;;;21.10;99.90;;;;;;5031400;28;20206;-70
2023/06/20 04:22:12;;;;;;;5.27;4.87;;;21.10;99.90;;;;;;5031836;28;20639;-70
2023/06/20 04:24:38;;;;;;;5.77;5.27;;;21.10;99.90;;;;;;5031491;28;20197;-70
2023/06/20 04:27:04;;;;;;;5.53;5.03;;;21.10;99.90;;;;;;5032274;28;20452;-70
2023/06/20 04:29:30;;;;;;;5.90;5.40;;;21.10;99.90;;;;;;5030581;28;20514;-71
2023/06/20 04:31:56;;;;;;;9.90;5.90;;;21.10;99.90;;;;;;5031547;28;20501;-70
2023/06/20 04:34:23;;;;;;;5.53;5.03;;;21.10;99.90;;;;;;5031619;28;20789;-70
2023/06/20 04:36:50;;;;;;;6.20;5.60;;;21.10;99.90;;;;;;5032123;28;20423;-70
2023/06/20 04:39:16;;;;;;;6.20;5.53;;;21.20;99.90;;;;;;5031902;28;20436;-70
2023/06/20 04:41:42;;;;;;;5.63;4.93;;;21.20;99.90;;;;;;5031381;28;20424;-70
2023/06/20 04:44:08;;;;;;;5.43;4.93;;;21.30;99.90;;;;;;5031394;28;20817;-70
2023/06/20 04:46:34;;;;;;;7.30;5.47;;;21.40;99.90;;;;;;5031896;28;20543;-70
2023/06/20 04:49:00;;;;;;;5.57;5.07;;;21.40;99.90;;;;;;5030634;28;20479;-70
2023/06/20 04:51:26;;;;;;;6.43;5.53;;;21.40;99.90;;;;;;5025253;28;20190;-70
2023/06/20 04:53:53;;;;;;;5.20;4.70;;;21.50;99.90;;;;;;5030390;28;20466;-70
2023/06/20 04:56:19;;;;;;;5.73;5.07;;;21.50;99.90;;;;;;5027005;28;20437;-70
2023/06/20 04:58:46;;;;;;;6.00;5.40;;;21.40;99.90;;;;;;5028219;28;20449;-70
2023/06/20 05:01:14;;;;;;;6.17;5.03;;;21.40;99.90;;;;;;5031529;28;20932;-70
2023/06/20 05:03:43;;;;;;;5.93;5.00;;;21.30;99.90;;;;;;5029509;28;20433;-70
2023/06/20 05:06:17;;;;;;;5.87;5.27;;;21.40;99.90;;;;;;5031871;28;20921;-70
2023/06/20 05:08:44;;;;;;;6.50;5.90;;;21.40;99.90;;;;;;5030710;28;20903;-70
2023/06/20 05:11:10;;;;;;;5.77;5.20;;;21.40;99.90;;;;;;5031663;28;20409;-70
2023/06/20 05:13:35;;;;;;;5.57;5.07;;;21.30;99.90;;;;;;5029539;28;20768;-70
2023/06/20 05:16:02;;;;;;;5.83;4.70;;;21.30;99.90;;;;;;5031483;28;20470;-70
2023/06/20 05:18:28;;;;;;;6.43;4.70;;;21.30;99.90;;;;;;5031350;28;20202;-70
2023/06/20 05:20:55;;;;;;;5.80;5.37;;;21.30;99.90;;;;;;5031380;28;20838;-70
2023/06/20 05:23:21;;;;;;;5.77;5.23;;;21.30;99.90;;;;;;5030555;28;20178;-70
2023/06/20 05:25:47;;;;;;;6.90;5.67;;;21.30;99.90;;;;;;5031148;28;21316;-70
2023/06/20 05:28:13;;;;;;;5.43;4.90;;;21.30;99.90;;;;;;5030407;28;20449;-70
2023/06/20 05:30:39;;;;;;;5.97;5.37;;;21.30;99.90;;;;;;5028512;28;20189;-70
2023/06/20 05:33:04;;;;;;;7.13;5.47;;;21.30;99.90;;;;;;5029255;28;21095;-70
2023/06/20 05:35:30;;;;;;;6.23;5.60;;;21.40;99.90;;;;;;5030890;28;20766;-70
2023/06/20 05:37:56;;;;;;;6.13;5.63;;;21.50;99.90;;;;;;5031003;28;20174;-70
2023/06/20 05:40:21;;;;;;;7.07;5.90;;;21.50;99.90;;;;;;5029225;28;20204;-70
2023/06/20 05:42:47;;;;;;;6.10;5.50;;;21.50;99.90;;;;;;5029958;28;20266;-70
2023/06/20 05:45:13;;;;;;;6.30;5.70;;;21.60;99.90;;;;;;5029648;28;20229;-70
2023/06/20 05:47:38;;;;;;;6.80;6.00;;;21.70;99.90;;;;;;5028555;28;20182;-70
2023/06/20 05:50:05;;;;;;;6.13;5.63;;;21.80;99.90;;;;;;5030361;28;20215;-70
2023/06/20 05:52:31;;;;;;;5.83;5.23;;;21.80;99.90;;;;;;5029815;28;20601;-70
2023/06/20 05:54:57;;;;;;;5.57;5.07;;;21.80;99.90;;;;;;5030267;28;20485;-70
2023/06/20 05:57:22;;;;;;;5.43;4.83;;;21.70;99.90;;;;;;5030594;28;20968;-70
2023/06/20 05:59:48;;;;;;;6.63;5.50;;;21.80;99.90;;;;;;5030364;28;20430;-70
2023/06/20 06:02:15;;;;;;;6.03;5.43;;;21.80;99.90;;;;;;5028810;28;20189;-70
2023/06/20 06:04:43;;;;;;;7.43;5.40;;;21.90;99.90;;;;;;5023789;28;20726;-70
2023/06/20 06:07:10;;;;;;;7.30;6.50;;;22.00;99.90;;;;;;5013495;28;20442;-71
2023/06/20 06:09:36;;;;;;;6.30;5.70;;;22.10;99.90;;;;;;5023916;28;20543;-71
2023/06/20 06:12:01;;;;;;;7.90;6.27;;;22.30;99.90;;;;;;5029337;28;20413;-70
2023/06/20 06:14:27;;;;;;;5.80;5.30;;;22.40;99.90;;;;;;5025094;28;20226;-70
2023/06/20 06:16:53;;;;;;;7.37;6.27;;;22.40;99.90;;;;;;5029348;28;20182;-70
2023/06/20 06:19:20;;;;;;;6.73;5.57;;;22.60;99.90;;;;;;5029901;28;20198;-70
2023/06/20 06:21:45;;;;;;;6.70;6.03;;;22.60;99.90;;;;;;5029366;28;20229;-70
2023/06/20 06:24:11;;;;;;;7.10;5.43;;;22.60;99.90;;;;;;5029623;28;20417;-70
2023/06/20 06:26:37;;;;;;;8.63;5.60;;;22.70;99.90;;;;;;5030087;28;20174;-70
2023/06/20 06:29:04;;;;;;;7.43;6.40;;;22.70;99.90;;;;;;5035869;28;20214;-70
2023/06/20 06:31:32;;;;;;;6.20;5.60;;;22.60;99.90;;;;;;5025307;28;20202;-70
2023/06/20 06:33:57;;;;;;;6.17;5.67;;;22.70;99.90;;;;;;5028208;28;20808;-70
2023/06/20 06:36:31;;;;;;;6.70;5.97;;;22.60;99.90;;;;;;5029498;28;20414;-69
2023/06/20 06:38:57;;;;;;;6.23;5.73;;;22.60;99.90;;;;;;5029454;28;20785;-70
2023/06/20 06:41:23;;;;;;;7.60;6.00;;;22.60;99.90;;;;;;5028309;28;20420;-70
2023/06/20 06:43:49;;;;;;;7.73;5.40;;;22.60;99.90;;;;;;5025389;28;20433;-69
2023/06/20 06:46:15;;;;;;;6.07;5.47;;;22.50;99.90;;;;;;5022896;28;20428;-70
2023/06/20 06:48:40;;;;;;;6.03;5.50;;;22.60;99.90;;;;;;5022104;28;20481;-69
2023/06/20 06:51:07;;;;;;;6.27;5.40;;;22.50;99.90;;;;;;5027404;28;20232;-70
2023/06/20 06:53:32;;;;;;;6.73;6.13;;;22.50;99.90;;;;;;5026867;28;20236;-70
2023/06/20 06:55:58;;;;;;;6.47;5.87;;;22.50;99.90;;;;;;5027672;28;20782;-70
2023/06/20 06:58:24;;;;;;;6.23;5.57;;;22.40;99.90;;;;;;5029155;28;20175;-70
2023/06/20 07:00:50;;;;;;;6.70;5.90;;;22.40;99.90;;;;;;5027743;28;20258;-70
2023/06/20 07:03:15;;;;;;;6.50;5.90;;;22.50;99.90;;;;;;5027322;28;20182;-70
2023/06/20 07:05:41;;;;;;;6.73;5.90;;;22.50;99.90;;;;;;5029216;28;20263;-70
2023/06/20 07:08:07;;;;;;;6.47;5.87;;;22.50;99.90;;;;;;5029206;28;20188;-71
2023/06/20 07:10:33;;;;;;;6.20;5.70;;;22.40;99.90;;;;;;5029236;28;20178;-70
2023/06/20 07:13:00;;;;;;;6.23;5.73;;;22.40;99.90;;;;;;5027796;28;20305;-70
2023/06/20 07:15:26;;;;;;;7.17;6.47;;;22.60;99.90;;;;;;5029073;28;20175;-70
2023/06/20 07:17:52;;;;;;;6.70;6.00;;;22.90;99.90;;;;;;5029229;28;20557;-70
2023/06/20 07:20:18;;;;;;;6.63;5.53;;;23.20;99.90;;;;;;5029033;28;20512;-70
2023/06/20 07:22:45;;;;;;;6.87;6.20;;;23.50;99.90;;;;;;5028205;28;20263;-70
2023/06/20 07:25:11;;;;;;;6.90;6.10;;;23.60;99.90;;;;;;5028793;28;20174;-70
2023/06/20 07:27:37;;;;;;;6.20;5.60;;;23.80;99.90;;;;;;5035964;28;20417;-70
2023/06/20 07:30:03;;;;;;;6.77;6.17;;;24.00;99.90;;;;;;5048410;28;21355;-70
2023/06/20 07:32:29;;;;;;;5.87;5.37;;;24.00;99.90;;;;;;5048115;28;20177;-70
2023/06/20 07:34:54;;;;;;;7.13;5.90;;;24.00;99.90;;;;;;5048688;28;20396;-70
2023/06/20 07:37:20;;;;;;;5.67;5.20;;;24.10;99.90;;;;;;5047561;28;20184;-71
2023/06/20 07:39:46;;;;;;;6.43;5.77;;;24.20;99.90;;;;;;5048807;28;20605;-70
2023/06/20 07:42:13;;;;;;;5.90;5.30;;;24.20;99.90;;;;;;5047842;28;20178;-71
2023/06/20 07:44:39;;;;;;;6.30;4.87;;;24.20;99.90;;;;;;5048487;28;20412;-70
2023/06/20 07:47:05;;;;;;;4.90;4.40;;;24.30;99.90;;;;;;5048579;28;20819;-71
2023/06/20 07:49:31;;;;;;;5.70;5.20;;;24.40;99.90;;;;;;5048770;28;20582;-71
2023/06/20 07:51:57;;;;;;;5.73;5.23;;;24.40;99.90;;;;;;5048044;28;20415;-71
2023/06/20 07:54:23;;;;;;;6.03;5.53;;;24.40;99.90;;;;;;5052424;28;20232;-71
2023/06/20 07:56:49;;;;;;;5.20;4.80;;;24.40;99.90;;;;;;5047380;28;20261;-71
2023/06/20 07:59:14;;;;;;;5.63;5.13;;;24.50;99.90;;;;;;5032840;28;20687;-71
2023/06/20 08:01:40;;;;;;;6.87;5.53;;;24.50;99.90;;;;;;5030690;28;20174;-70
2023/06/20 08:04:06;;;;;;;6.77;5.30;;;24.50;99.90;;;;;;5032227;28;20261;-71
2023/06/20 08:06:31;;;;;;;6.10;5.50;;;24.40;99.90;;;;;;5032540;28;20189;-71
2023/06/20 08:08:57;;;;;;;5.30;4.80;;;24.50;99.90;;;;;;5032384;28;20867;-71
2023/06/20 08:11:24;;;;;;;5.20;4.80;;;24.50;99.90;;;;;;5031688;28;20162;-71
2023/06/20 08:13:50;;;;;;;5.77;5.20;;;24.40;99.90;;;;;;5031705;28;20787;-71
2023/06/20 08:16:16;;;;;;;5.33;4.83;;;24.50;99.90;;;;;;5032345;28;20405;-71
2023/06/20 08:18:42;;;;;;;5.27;4.77;;;24.50;99.90;;;;;;5032288;28;20487;-71
2023/06/20 08:21:08;;;;;;;5.47;4.50;;;24.50;99.90;;;;;;5032163;28;20682;-71
2023/06/20 08:23:33;;;;;;;5.03;4.63;;;24.50;99.90;;;;;;5031492;28;20591;-71
2023/06/20 08:25:59;;;;;;;4.93;4.50;;;24.50;99.90;;;;;;5032338;28;20844;-71
2023/06/20 08:28:25;;;;;;;7.40;4.80;;;24.60;99.90;;;;;;5046810;28;20563;-71
2023/06/20 08:30:52;;;;;;;5.47;4.87;;;24.60;99.90;;;;;;5051882;28;20227;-71
2023/06/20 08:33:19;;;;;;;5.73;5.07;;;24.70;99.90;;;;;;5050959;28;21180;-70
2023/06/20 08:35:46;;;;;;;5.20;4.80;;;24.80;99.90;;;;;;5050713;28;20415;-71
2023/06/20 08:38:12;;;;;;;5.40;4.53;;;24.90;99.90;;;;;;5051631;28;20412;-71
2023/06/20 08:40:38;;;;;;;5.80;5.30;;;25.00;99.90;;;;;;5051988;28;20423;-71
2023/06/20 08:43:04;;;;;;;5.40;4.90;;;25.20;99.90;;;;;;5050725;28;20411;-71
2023/06/20 08:45:30;;;;;;;5.07;4.57;;;25.20;99.90;;;;;;5051789;28;20408;-71
2023/06/20 08:47:59;;;;;;;4.23;3.93;;;25.30;99.90;;;;;;5051498;28;20777;-71
2023/06/20 08:50:28;;;;;;;5.20;4.80;;;25.40;99.90;;;;;;5051572;28;20284;-71
2023/06/20 08:52:59;;;;;;;5.03;4.63;;;25.50;99.90;;;;;;5050888;28;20443;-71
2023/06/20 08:55:26;;;;;;;5.27;4.87;;;25.60;99.90;;;;;;5051616;28;20555;-70
2023/06/20 08:57:52;;;;;;;5.47;4.97;;;25.70;99.90;;;;;;5037712;28;20421;-71
2023/06/20 09:00:20;;;;;;;4.60;4.20;;;25.70;99.90;;;;;;5029942;28;20428;-71
2023/06/20 09:02:51;;;;;;;4.80;4.10;;;25.80;99.90;;;;;;5030506;28;20235;-70
2023/06/20 09:05:17;;;;;;;4.53;4.23;;;26.00;99.90;;;;;;5031390;28;20532;-71
2023/06/20 09:07:43;;;;;;;5.90;5.40;;;26.10;99.90;;;;;;5031280;28;20409;-71
2023/06/20 09:10:12;;;;;;;5.00;4.50;;;26.10;99.90;;;;;;5031389;28;20460;-71
2023/06/20 09:12:49;;;;;;;6.00;5.50;;;26.10;99.90;;;;;;5029956;28;20898;-71
2023/06/20 09:15:17;;;;;;;5.20;4.70;;;26.00;99.90;;;;;;5031103;28;20898;-71
2023/06/20 09:17:43;;;;;;;5.30;4.80;;;26.00;99.90;;;;;;5031185;28;20409;-71
2023/06/20 09:20:16;;;;;;;5.17;4.77;;;26.00;99.90;;;;;;5030029;28;20444;-71
2023/06/20 09:22:42;;;;;;;5.03;4.53;;;26.10;99.90;;;;;;5030423;28;20475;-71
2023/06/20 09:25:12;;;;;;;4.93;4.43;;;26.20;99.90;;;;;;5029398;28;20413;-71
2023/06/20 09:27:41;;;;;;;4.60;4.30;;;26.20;99.90;;;;;;5039600;28;20424;-71
2023/06/20 09:30:07;;;;;;;5.53;5.03;;;26.20;99.90;;;;;;5050853;28;20452;-71
2023/06/20 09:32:39;;;;;;;5.40;5.00;;;26.20;99.90;;;;;;5050223;28;20413;-71
2023/06/20 09:35:07;;;;;;;5.10;4.70;;;26.30;99.90;;;;;;5050610;28;20473;-71
2023/06/20 09:37:47;;;;;;;5.10;4.70;;;26.40;99.90;;;;;;5050764;28;20506;-71
2023/06/20 09:40:14;;;;;;;4.90;4.50;;;26.60;99.90;;;;;;5050605;28;20436;-70
2023/06/20 09:42:42;;;;;;;4.70;4.30;;;26.70;99.90;;;;;;5049928;28;20527;-70
2023/06/20 09:45:10;;;;;;;5.20;4.80;;;26.90;99.90;;;;;;5050593;28;20412;-70
2023/06/20 09:47:37;;;;;;;4.90;4.40;;;27.00;99.90;;;;;;5050726;28;20428;-70
2023/06/20 09:50:08;;;;;;;5.47;4.97;;;27.00;99.90;;;;;;5050404;28;20456;-70
2023/06/20 09:52:42;;;;;;;5.27;4.87;;;27.00;99.90;;;;;;5049880;28;20404;-70
2023/06/20 09:55:15;;;;;;;4.40;4.10;;;26.90;99.90;;;;;;5050305;28;20420;-70
2023/06/20 09:57:53;;;;;;;5.73;5.13;;;26.80;99.90;;;;;;5038060;28;20845;-70
2023/06/20 10:00:20;;;;;;;6.53;5.17;;;26.70;99.90;;;;;;5028979;28;20464;-70
2023/06/20 10:02:47;;;;;;;5.67;5.17;;;26.80;99.90;;;;;;5029692;28;20490;-70
2023/06/20 10:05:14;;;;;;;5.20;4.80;;;26.80;99.90;;;;;;5030112;28;20469;-70
2023/06/20 10:07:42;;;;;;;5.03;4.43;;;27.00;99.90;;;;;;5030290;28;20449;-70
2023/06/20 10:10:10;;;;;;;6.00;5.50;;;27.20;99.90;;;;;;5030021;28;20831;-70
2023/06/20 10:12:36;;;;;;;5.20;4.80;;;27.40;99.90;;;;;;5028508;28;20484;-71
2023/06/20 10:15:03;;;;;;;5.80;5.40;;;27.50;99.60;;;;;;5029333;28;20780;-71
2023/06/20 10:17:31;;;;;;;5.33;4.93;;;27.40;99.50;;;;;;5030254;28;20414;-71
2023/06/20 10:19:59;;;;;;;6.33;5.70;;;27.40;99.90;;;;;;5029022;28;20465;-71
2023/06/20 10:22:48;;;;;;;6.03;5.53;;;27.40;99.90;;;;;;5029589;28;20424;-71
2023/06/20 10:25:18;;;;;;;6.87;6.30;;;27.40;99.90;;;;;;5029918;28;20459;-71
2023/06/20 10:27:53;;;;;;;6.20;5.60;;;27.50;99.90;;;;;;5039471;28;20425;-71
2023/06/20 10:30:50;;;;;;;5.90;5.40;;;27.60;99.90;;;;;;5049646;28;20540;-71
2023/06/20 10:33:29;;;;;;;6.43;5.93;;;27.70;99.90;;;;;;5048635;28;20467;-71
2023/06/20 10:36:05;;;;;;;6.50;6.00;;;27.70;99.60;;;;;;5041741;28;20432;-71
2023/06/20 10:38:33;;;;;;;6.27;5.67;;;27.70;99.40;;;;;;5026193;28;20445;-71
2023/06/20 10:41:22;;;;;;;5.77;5.27;;;27.70;99.10;;;;;;5026881;28;20999;-71
2023/06/20 10:43:55;;;;;;;6.40;5.80;;;27.70;99.80;;;;;;5028407;28;20815;-71
2023/06/20 10:46:29;;;;;;;5.40;5.00;;;27.80;99.90;;;;;;5029247;28;20945;-71
2023/06/20 10:48:55;;;;;;;5.63;5.23;;;27.90;99.10;;;;;;5022049;28;20463;-71
2023/06/20 10:51:21;;;;;;;5.73;5.03;;;28.00;98.20;;;;;;5028669;28;20424;-71
2023/06/20 10:53:47;;;;;;;5.07;4.67;;;27.90;98.20;;;;;;5028744;28;20733;-71
2023/06/20 10:56:26;;;;;;;5.03;4.63;;;27.90;98.10;;;;;;5029197;28;20178;-71
2023/06/20 10:58:52;;;;;;;4.97;4.57;;;28.10;99.10;;;;;;5028984;28;20205;-71
2023/06/20 11:01:18;;;;;;;4.53;4.13;;;28.30;98.50;;;;;;5027406;28;20425;-71
2023/06/20 11:03:45;;;;;;;5.10;4.70;;;28.40;98.00;;;;;;5010845;28;20762;-71
2023/06/20 11:06:16;;;;;;;4.77;4.37;;;28.40;96.70;;;;;;5029204;28;20796;-71
2023/06/20 11:08:45;;;;;;;5.57;5.07;;;28.50;97.70;;;;;;5028776;28;21004;-71
2023/06/20 11:11:10;;;;;;;5.50;5.00;;;28.60;96.70;;;;;;5028708;28;20439;-71
2023/06/20 11:13:45;;;;;;;5.53;5.13;;;28.60;97.20;;;;;;5026512;28;20418;-71
2023/06/20 11:16:18;;;;;;;5.30;4.90;;;28.70;97.80;;;;;;5028976;28;20496;-71
2023/06/20 11:18:45;;;;;;;4.83;4.43;;;28.80;96.80;;;;;;5028628;28;20433;-71
2023/06/20 11:21:10;;;;;;;4.70;4.30;;;28.90;97.70;;;;;;5028708;28;20475;-71
2023/06/20 11:23:36;;;;;;;4.40;4.10;;;29.00;96.00;;;;;;5026870;28;20425;-70
2023/06/20 11:26:02;;;;;;;5.17;4.77;;;29.00;94.80;;;;;;5029000;28;20170;-71
2023/06/20 11:28:28;;;;;;;4.67;4.27;;;28.90;95.10;;;;;;5035023;28;20217;-71
2023/06/20 11:30:53;;;;;;;5.77;5.17;;;28.90;95.10;;;;;;5028659;28;20952;-70
2023/06/20 11:33:19;;;;;;;5.03;4.63;;;28.90;95.20;;;;;;5027692;28;20183;-71
2023/06/20 11:35:56;;;;;;;5.27;4.17;;;28.90;94.90;;;;;;5028632;28;20202;-71
2023/06/20 11:38:27;;;;;;;4.77;4.47;;;28.80;95.50;;;;;;5027382;28;20200;-71
2023/06/20 11:41:28;;;;;;;5.70;5.03;;;28.80;95.30;;;;;;5020813;28;20409;-71
2023/06/20 11:43:54;;;;;;;4.83;4.53;;;28.80;95.80;;;;;;5028267;28;20409;-71
2023/06/20 11:46:20;;;;;;;7.00;4.87;;;28.80;95.20;;;;;;5028430;28;20448;-71
2023/06/20 11:48:50;;;;;;;4.83;4.40;;;28.80;95.90;;;;;;5028304;28;20214;-71
2023/06/20 11:51:15;;;;;;;4.60;4.20;;;28.80;96.40;;;;;;5027994;28;20559;-71
2023/06/20 11:53:41;;;;;;;5.57;5.17;;;28.90;95.90;;;;;;5028074;28;20413;-71
2023/06/20 11:56:08;;;;;;;4.53;4.13;;;28.90;94.80;;;;;;5028347;28;20182;-71
2023/06/20 11:58:45;;;;;;;5.50;5.00;;;28.80;95.50;;;;;;5028423;28;20213;-71
2023/06/20 12:01:16;;;;;;;5.33;4.63;;;28.90;94.60;;;;;;5026924;28;20483;-71
2023/06/20 12:03:44;;;;;;;4.90;4.50;;;28.80;95.10;;;;;;5027860;28;20507;-71
2023/06/20 12:06:30;;;;;;;4.57;4.27;;;28.80;95.40;;;;;;5028253;28;20429;-71
2023/06/20 12:09:09;;;;;;;4.87;4.47;;;28.80;94.70;;;;;;5020889;28;21000;-70
2023/06/20 12:11:45;;;;;;;4.77;4.40;;;28.70;94.30;;;;;;5025228;28;20849;-71
2023/06/20 12:14:11;;;;;;;4.60;4.20;;;28.70;94.90;;;;;;5027147;28;20506;-71
2023/06/20 12:16:37;;;;;;;4.63;4.30;;;28.60;94.80;;;;;;5027995;28;20412;-71
2023/06/20 12:19:03;;;;;;;5.10;4.80;;;28.80;96.20;;;;;;5028305;28;20995;-71
2023/06/20 12:21:29;;;;;;;4.83;4.43;;;29.00;95.80;;;;;;5027366;28;20221;-71
2023/06/20 12:23:55;;;;;;;5.17;4.67;;;29.10;95.00;;;;;;5027831;28;20183;-71
2023/06/20 12:26:22;;;;;;;5.13;4.73;;;29.20;96.50;;;;;;5028029;28;20260;-71
2023/06/20 12:28:47;;;;;;;5.40;4.90;;;29.30;94.80;;;;;;5030526;28;20848;-71
2023/06/20 12:31:14;;;;;;;4.93;4.40;;;29.30;94.90;;;;;;5027798;28;20411;-71
2023/06/20 12:33:39;;;;;;;6.07;5.57;;;29.30;95.60;;;;;;5026284;28;20178;-71
2023/06/20 12:36:06;;;;;;;5.37;4.97;;;29.40;95.40;;;;;;5027928;28;20492;-71
2023/06/20 12:38:31;;;;;;;4.93;4.53;;;29.50;95.00;;;;;;5028937;28;20214;-71
2023/06/20 12:40:58;;;;;;;5.40;5.00;;;29.50;94.70;;;;;;5024026;28;20815;-71
2023/06/20 12:43:23;;;;;;;5.20;4.80;;;29.40;94.80;;;;;;5030614;28;20195;-71
2023/06/20 12:45:49;;;;;;;6.13;5.53;;;29.30;94.80;;;;;;5031459;28;20479;-71
2023/06/20 12:48:15;;;;;;;5.47;5.07;;;29.20;94.60;;;;;;5030204;28;21030;-71
2023/06/20 12:50:41;;;;;;;5.70;5.10;;;29.10;95.00;;;;;;5031626;28;20198;-71
2023/06/20 12:53:06;;;;;;;6.17;5.67;;;29.10;96.70;;;;;;5030599;28;20250;-71